Time;durP1;ratioP1;P1;durP2;ratioP2;P2;SDS_P1;SDS_P2;PMS_P1;PMS_P2;Temp;Humidity;BMP_temperature;BMP_pressure;BME280_temperature;BME280_humidity;BME280_pressure;Samples;Min_cycle;Max_cycle;Signal;HPM_P1;HPM_P2
2022/03/12 00:01:38;;;;;;;21.35;13.55;;;;;;;10.08;40.65;101239.56;4975613;28;20543;-71
2022/03/12 00:04:06;;;;;;;22.20;13.43;;;;;;;10.05;40.46;101231.94;4975904;28;20031;-71
2022/03/12 00:06:32;;;;;;;22.42;13.52;;;;;;;10.10;40.25;101234.09;4976516;28;20070;-71
2022/03/12 00:08:57;;;;;;;22.40;13.98;;;;;;;10.05;40.29;101217.81;4976549;28;20058;-71
2022/03/12 00:11:30;;;;;;;21.25;12.45;;;;;;;10.10;40.33;101232.28;4983379;28;20033;-71
2022/03/12 00:13:59;;;;;;;21.17;13.18;;;;;;;10.08;40.67;101242.22;4959427;28;20501;-71
2022/03/12 00:16:25;;;;;;;21.80;13.50;;;;;;;10.10;40.40;101234.09;4975723;28;20042;-72
2022/03/12 00:19:01;;;;;;;22.33;13.55;;;;;;;10.08;40.85;101238.75;4984849;28;20034;-71
2022/03/12 00:21:29;;;;;;;20.95;13.27;;;;;;;10.09;40.75;101249.19;4978708;28;20037;-72
2022/03/12 00:23:58;;;;;;;21.02;13.65;;;;;;;10.09;40.79;101254.50;4976578;28;20026;-71
2022/03/12 00:26:24;;;;;;;21.63;14.05;;;;;;;10.05;40.56;101247.84;4973361;28;20026;-71
2022/03/12 00:28:52;;;;;;;23.88;13.40;;;;;;;10.12;40.46;101248.03;4975229;28;20552;-71
2022/03/12 00:31:17;;;;;;;23.27;13.80;;;;;;;10.05;40.72;101236.41;4978088;28;20050;-71
2022/03/12 00:33:43;;;;;;;21.20;13.65;;;;;;;10.06;40.50;101238.91;4980625;28;20506;-71
2022/03/12 00:36:09;;;;;;;25.10;14.40;;;;;;;10.10;40.42;101256.16;4979357;28;20037;-71
2022/03/12 00:38:35;;;;;;;23.75;13.52;;;;;;;10.05;40.60;101254.97;4980274;28;20081;-71
2022/03/12 00:41:02;;;;;;;22.73;13.70;;;;;;;9.98;40.70;101245.97;4962868;28;20026;-71
2022/03/12 00:43:28;;;;;;;23.05;13.25;;;;;;;10.01;41.18;101243.84;4982620;28;20059;-71
2022/03/12 00:45:53;;;;;;;22.30;14.20;;;;;;;10.03;41.03;101254.31;4980096;28;20062;-71
2022/03/12 00:48:18;;;;;;;25.80;14.50;;;;;;;9.97;41.19;101260.25;4979102;28;20521;-71
2022/03/12 00:50:44;;;;;;;21.55;13.13;;;;;;;9.99;41.12;101261.75;4980101;28;20373;-72
2022/03/12 00:53:09;;;;;;;26.02;14.13;;;;;;;9.98;41.06;101265.38;4975945;28;20133;-71
2022/03/12 00:55:35;;;;;;;20.63;13.48;;;;;;;9.98;41.30;101259.25;4978665;28;20161;-71
2022/03/12 00:58:00;;;;;;;23.92;14.05;;;;;;;9.96;41.52;101256.75;4981768;28;20497;-72
2022/03/12 01:00:26;;;;;;;21.17;14.18;;;;;;;9.92;41.79;101260.72;4983496;28;20030;-72
2022/03/12 01:02:52;;;;;;;22.92;13.85;;;;;;;9.91;41.48;101270.50;4977818;28;20032;-71
2022/03/12 01:05:21;;;;;;;26.50;14.38;;;;;;;9.84;41.71;101265.97;4983118;28;20026;-71
2022/03/12 01:07:46;;;;;;;;;;;;;;;9.91;41.95;101278.44;4983788;28;20486;-71
2022/03/12 01:10:12;;;;;;;21.02;13.80;;;;;;;9.87;42.03;101276.28;4972869;28;20020;-70
2022/03/12 01:12:38;;;;;;;22.45;14.00;;;;;;;9.86;42.22;101280.75;4981109;28;20108;-71
2022/03/12 01:15:05;;;;;;;26.23;14.45;;;;;;;9.82;42.54;101279.34;4976194;28;20038;-71
2022/03/12 01:17:34;;;;;;;23.25;13.27;;;;;;;9.83;42.69;101275.75;4982958;28;20045;-71
2022/03/12 01:20:00;;;;;;;23.70;13.95;;;;;;;9.83;42.94;101280.19;4982571;28;20134;-71
2022/03/12 01:22:32;;;;;;;25.52;14.35;;;;;;;9.79;42.98;101271.72;4976869;28;20034;-70
2022/03/12 01:24:57;;;;;;;22.40;13.63;;;;;;;9.76;43.17;101252.63;4981277;28;20027;-71
2022/03/12 01:27:23;;;;;;;23.13;14.30;;;;;;;9.79;43.45;101268.22;4970235;28;20038;-71
2022/03/12 01:29:48;;;;;;;25.50;14.13;;;;;;;9.81;43.51;101272.38;4977218;28;20033;-71
2022/03/12 01:32:13;;;;;;;26.55;14.15;;;;;;;9.81;43.87;101282.16;4980139;28;20505;-72
2022/03/12 01:34:39;;;;;;;23.63;14.35;;;;;;;9.79;44.10;101284.97;4984891;28;20382;-71
2022/03/12 01:37:04;;;;;;;24.67;13.93;;;;;;;9.77;44.26;101280.81;4987525;28;20421;-71
2022/03/12 01:39:30;;;;;;;23.60;14.73;;;;;;;9.72;44.88;101289.25;4983852;28;20066;-71
2022/03/12 01:41:55;;;;;;;21.35;14.30;;;;;;;9.63;45.34;101274.25;4982175;28;20101;-71
2022/03/12 01:44:21;;;;;;;22.08;14.32;;;;;;;9.67;45.64;101285.38;4968153;28;20045;-70
2022/03/12 01:46:48;;;;;;;21.70;14.38;;;;;;;9.64;46.03;101286.53;4975194;28;20113;-71
2022/03/12 01:49:19;;;;;;;24.83;14.45;;;;;;;9.59;46.03;101288.81;4986663;28;20508;-72
2022/03/12 01:51:47;;;;;;;21.65;14.07;;;;;;;9.60;46.54;101295.78;4980090;28;20098;-71
2022/03/12 01:54:18;;;;;;;22.87;14.67;;;;;;;9.57;46.85;101293.44;4980306;28;20101;-71
2022/03/12 01:56:44;;;;;;;25.33;14.80;;;;;;;9.46;47.62;101293.66;4973357;28;20026;-71
2022/03/12 01:59:10;;;;;;;25.45;14.43;;;;;;;9.44;48.16;101303.56;4981598;28;20022;-71
2022/03/12 02:01:35;;;;;;;24.23;14.68;;;;;;;9.42;48.43;101301.09;4978209;28;20069;-71
2022/03/12 02:04:00;;;;;;;25.23;14.98;;;;;;;9.37;49.11;101289.28;4986667;28;20058;-71
2022/03/12 02:06:27;;;;;;;22.10;14.55;;;;;;;9.33;49.25;101288.75;4981088;28;20133;-72
2022/03/12 02:08:58;;;;;;;25.27;14.32;;;;;;;9.32;49.97;101292.38;4979684;28;20034;-71
2022/03/12 02:11:27;;;;;;;26.30;14.98;;;;;;;9.24;49.70;101284.34;4985349;28;20027;-72
2022/03/12 02:14:09;;;;;;;23.90;14.55;;;;;;;9.32;49.99;101292.38;4986958;28;20041;-71
2022/03/12 02:16:35;;;;;;;21.42;14.88;;;;;;;9.29;50.21;101292.69;4975992;28;20280;-72
2022/03/12 02:19:00;;;;;;;22.88;14.02;;;;;;;9.27;50.33;101287.53;4960060;28;20034;-71
2022/03/12 02:21:34;;;;;;;24.20;14.43;;;;;;;9.30;50.27;101297.84;4981817;28;20226;-71
2022/03/12 02:24:00;;;;;;;23.50;14.32;;;;;;;9.07;50.13;101269.28;4981521;28;20613;-71
2022/03/12 02:26:25;;;;;;;23.35;14.82;;;;;;;9.23;50.47;101291.44;4983391;28;20034;-71
2022/03/12 02:28:51;;;;;;;24.50;14.73;;;;;;;9.10;50.29;101271.63;4982819;28;20036;-71
2022/03/12 02:31:16;;;;;;;24.85;14.75;;;;;;;9.25;50.51;101296.59;4980460;28;20097;-71
2022/03/12 02:33:43;;;;;;;25.52;14.77;;;;;;;9.25;50.35;101296.59;4977831;28;20030;-71
2022/03/12 02:36:11;;;;;;;26.10;15.02;;;;;;;9.20;50.93;101289.09;4976608;28;20018;-71
2022/03/12 02:38:36;;;;;;;21.83;14.75;;;;;;;9.24;50.78;101286.97;4977777;28;20298;-71
2022/03/12 02:41:10;;;;;;;24.20;15.13;;;;;;;9.24;50.09;101292.28;4976310;28;20049;-71
2022/03/12 02:43:37;;;;;;;23.17;14.48;;;;;;;9.18;50.76;101296.38;4983469;28;20041;-71
2022/03/12 02:46:03;;;;;;;23.70;14.93;;;;;;;9.18;50.67;101299.03;4980922;28;20049;-71
2022/03/12 02:48:29;;;;;;;21.80;14.32;;;;;;;9.17;50.99;101302.66;4955855;28;20478;-71
2022/03/12 02:50:54;;;;;;;25.15;14.85;;;;;;;9.19;50.85;101302.50;4979726;28;20589;-70
2022/03/12 02:53:20;;;;;;;24.45;14.65;;;;;;;9.12;50.79;101296.97;4982603;28;20031;-71
2022/03/12 02:55:45;;;;;;;27.83;15.38;;;;;;;9.20;50.79;101304.16;4981272;28;20056;-71
2022/03/12 02:58:12;;;;;;;27.42;14.35;;;;;;;9.20;50.84;101318.25;4980858;28;20483;-71
2022/03/12 03:00:37;;;;;;;24.00;14.45;;;;;;;9.18;50.63;101324.69;4979127;28;20390;-71
2022/03/12 03:03:06;;;;;;;25.08;15.13;;;;;;;9.20;50.97;101320.91;4976899;28;20034;-71
2022/03/12 03:05:45;;;;;;;26.80;14.90;;;;;;;9.20;50.93;101326.19;4970776;28;20026;-71
2022/03/12 03:08:18;;;;;;;26.30;15.02;;;;;;;9.19;50.87;101329.84;4986976;28;20038;-71
2022/03/12 03:10:46;;;;;;;26.05;15.15;;;;;;;9.16;50.93;101324.00;4981378;28;20257;-71
2022/03/12 03:13:17;;;;;;;21.85;14.40;;;;;;;9.18;51.11;101324.69;4975979;28;20059;-71
2022/03/12 03:16:02;;;;;;;25.10;14.80;;;;;;;9.19;51.04;101321.06;4980555;28;20058;-71
2022/03/12 03:18:30;;;;;;;23.05;14.75;;;;;;;9.17;51.06;101315.06;4974584;28;20106;-71
2022/03/12 03:20:57;;;;;;;25.20;14.35;;;;;;;9.05;51.02;101303.88;4978902;28;20034;-71
2022/03/12 03:23:25;;;;;;;25.35;15.18;;;;;;;9.09;51.32;101322.94;4985314;28;20022;-71
2022/03/12 03:25:51;;;;;;;26.02;14.50;;;;;;;9.07;51.57;101322.25;4979318;28;20027;-70
2022/03/12 03:28:16;;;;;;;24.13;13.90;;;;;;;8.99;51.17;101323.84;4981736;28;20037;-71
2022/03/12 03:30:42;;;;;;;26.17;14.68;;;;;;;8.98;51.78;101324.81;4976388;28;20079;-71
2022/03/12 03:33:10;;;;;;;24.75;14.80;;;;;;;8.96;51.88;101326.78;4970926;28;20026;-71
2022/03/12 03:35:38;;;;;;;19.75;13.85;;;;;;;8.92;51.94;101324.56;4971805;28;20467;-71
2022/03/12 03:38:03;;;;;;;23.92;14.63;;;;;;;8.82;51.96;101321.97;4985988;28;20037;-72
2022/03/12 03:40:29;;;;;;;26.15;14.48;;;;;;;8.84;51.92;101338.53;4969071;28;20034;-71
2022/03/12 03:42:54;;;;;;;23.38;14.25;;;;;;;8.80;52.01;101339.81;4978477;28;20023;-71
2022/03/12 03:45:22;;;;;;;23.75;14.95;;;;;;;8.79;52.43;101347.91;4977672;28;20051;-71
2022/03/12 03:47:49;;;;;;;28.33;15.20;;;;;;;8.75;52.83;101347.38;4975520;28;20015;-71
2022/03/12 03:50:14;;;;;;;23.92;14.40;;;;;;;8.69;52.94;101348.81;4982151;28;20292;-72
2022/03/12 03:52:40;;;;;;;21.38;13.80;;;;;;;8.68;53.10;101352.44;4986419;28;20023;-71
2022/03/12 03:55:06;;;;;;;21.80;14.68;;;;;;;8.66;52.74;101351.72;4983703;28;20081;-71
2022/03/12 03:57:31;;;;;;;25.85;14.00;;;;;;;8.62;53.27;101344.22;4976403;28;20037;-71
2022/03/12 03:59:56;;;;;;;23.55;14.68;;;;;;;8.59;53.46;101355.09;4979432;28;20026;-72
2022/03/12 04:02:22;;;;;;;20.95;14.20;;;;;;;8.59;53.65;101360.41;4978622;28;20502;-71
2022/03/12 04:04:48;;;;;;;21.58;14.18;;;;;;;8.55;53.54;101359.84;4980786;28;20034;-71
2022/03/12 04:07:14;;;;;;;21.88;13.93;;;;;;;8.55;53.71;101359.84;4974706;28;20077;-71
2022/03/12 04:09:39;;;;;;;26.05;14.20;;;;;;;8.46;53.99;101351.94;4981276;28;20034;-71
2022/03/12 04:12:05;;;;;;;23.70;14.45;;;;;;;8.53;54.11;101366.28;4969661;28;20023;-71
2022/03/12 04:14:31;;;;;;;22.40;14.05;;;;;;;8.48;54.22;101364.06;4982959;28;20034;-71
2022/03/12 04:16:58;;;;;;;25.08;14.48;;;;;;;8.37;54.64;101354.47;4982575;28;20568;-71
2022/03/12 04:19:30;;;;;;;23.40;14.27;;;;;;;8.40;54.86;101368.41;4975056;28;20026;-71
2022/03/12 04:21:57;;;;;;;19.42;13.80;;;;;;;8.41;54.96;101375.38;4961282;28;20398;-71
2022/03/12 04:24:23;;;;;;;25.65;14.35;;;;;;;8.21;55.58;101346.28;4984003;28;20026;-71
2022/03/12 04:26:50;;;;;;;21.55;13.50;;;;;;;8.34;56.01;101373.28;4983890;28;20030;-71
2022/03/12 04:29:15;;;;;;;25.27;13.52;;;;;;;8.37;56.33;101378.28;4982397;28;20022;-71
2022/03/12 04:31:40;;;;;;;23.17;13.35;;;;;;;8.31;56.71;101370.88;4985171;28;20375;-71
2022/03/12 04:34:05;;;;;;;20.80;13.00;;;;;;;8.37;56.69;101380.94;4978559;28;20035;-71
2022/03/12 04:36:33;;;;;;;21.25;13.52;;;;;;;8.34;56.90;101375.09;4980815;28;20034;-71
2022/03/12 04:38:58;;;;;;;21.15;12.85;;;;;;;8.26;56.80;101367.84;4971775;28;20030;-71
2022/03/12 04:41:34;;;;;;;21.50;12.57;;;;;;;8.21;57.44;101367.44;4982348;28;20034;-71
2022/03/12 04:44:00;;;;;;;21.65;13.60;;;;;;;8.19;57.45;101366.75;4957298;28;20505;-72
2022/03/12 04:46:25;;;;;;;18.00;12.57;;;;;;;8.27;57.51;101380.09;4978442;28;20030;-71
2022/03/12 04:48:50;;;;;;;18.23;13.02;;;;;;;8.21;57.74;101370.09;4975574;28;20027;-71
2022/03/12 04:51:16;;;;;;;23.10;13.38;;;;;;;8.12;57.63;101365.66;4975275;28;20018;-71
2022/03/12 04:53:41;;;;;;;18.90;12.95;;;;;;;8.22;57.67;101379.69;4980794;28;20449;-71
2022/03/12 04:56:06;;;;;;;23.60;13.67;;;;;;;8.13;58.06;101362.03;4964893;28;20037;-71
2022/03/12 04:58:31;;;;;;;22.10;13.38;;;;;;;8.21;58.19;101377.19;4981726;28;20393;-71
2022/03/12 05:00:57;;;;;;;20.23;13.32;;;;;;;8.19;58.45;101376.50;4984022;28;20037;-71
2022/03/12 05:03:23;;;;;;;20.60;12.98;;;;;;;8.15;58.60;101383.88;4982569;28;20514;-71
2022/03/12 05:05:53;;;;;;;18.00;12.97;;;;;;;8.12;59.27;101394.75;4980249;28;20429;-71
2022/03/12 05:08:28;;;;;;;19.88;13.13;;;;;;;8.10;60.38;101399.34;4983021;28;20064;-71
2022/03/12 05:10:56;;;;;;;20.05;12.00;;;;;;;8.10;60.47;101398.50;4980691;28;20019;-71
2022/03/12 05:13:23;;;;;;;17.58;12.23;;;;;;;8.05;60.87;101388.31;4981126;28;20521;-71
2022/03/12 05:15:53;;;;;;;19.33;11.82;;;;;;;8.04;61.50;101389.31;4981832;28;20108;-71
2022/03/12 05:18:21;;;;;;;16.63;11.88;;;;;;;8.04;61.90;101389.31;4977384;28;20574;-71
2022/03/12 05:20:47;;;;;;;15.82;11.10;;;;;;;8.09;61.77;101405.59;4977371;28;20049;-71
2022/03/12 05:23:13;;;;;;;17.73;11.88;;;;;;;8.09;62.50;101402.94;4985547;28;20026;-70
2022/03/12 05:25:41;;;;;;;19.23;12.35;;;;;;;8.07;63.13;101403.09;4980825;28;20022;-71
2022/03/12 05:28:08;;;;;;;18.20;12.25;;;;;;;8.06;63.00;101416.44;4982849;28;20041;-71
2022/03/12 05:30:34;;;;;;;16.60;11.70;;;;;;;8.03;63.49;101411.44;4983034;28;20030;-71
2022/03/12 05:32:59;;;;;;;20.48;12.27;;;;;;;8.04;63.78;101423.69;4988658;28;20428;-71
2022/03/12 05:35:24;;;;;;;18.17;11.38;;;;;;;7.90;63.81;101408.25;4978772;28;20038;-71
2022/03/12 05:37:51;;;;;;;17.97;11.90;;;;;;;8.02;63.86;101433.56;4975419;28;20513;-71
2022/03/12 05:40:23;;;;;;;19.35;11.65;;;;;;;7.96;64.18;101434.16;4972341;28;20077;-71
2022/03/12 05:42:49;;;;;;;17.20;11.63;;;;;;;7.98;64.54;101440.13;4973356;28;20035;-71
2022/03/12 05:45:18;;;;;;;17.23;11.85;;;;;;;7.96;64.67;101440.28;4976822;28;20029;-71
2022/03/12 05:47:44;;;;;;;17.83;12.15;;;;;;;7.94;65.55;101439.56;4983781;28;20085;-70
2022/03/12 05:50:12;;;;;;;16.33;11.25;;;;;;;7.89;65.43;101439.16;4960168;28;20101;-71
2022/03/12 05:52:39;;;;;;;17.80;12.00;;;;;;;7.90;65.68;101445.28;4980010;28;20026;-71
2022/03/12 05:55:08;;;;;;;17.17;11.60;;;;;;;7.88;66.05;101449.88;4982403;28;20598;-71
2022/03/12 05:57:34;;;;;;;17.70;11.23;;;;;;;7.90;66.06;101445.28;4977589;28;20520;-71
2022/03/12 06:00:03;;;;;;;17.60;11.33;;;;;;;7.89;66.11;101443.63;4977845;28;20048;-70
2022/03/12 06:02:29;;;;;;;17.10;12.33;;;;;;;7.85;66.52;101448.34;4976618;28;20056;-71
2022/03/12 06:04:58;;;;;;;18.13;12.27;;;;;;;7.84;66.82;101444.03;4978677;28;20125;-70
2022/03/12 06:07:24;;;;;;;19.85;12.23;;;;;;;7.81;66.67;101443.47;4976870;28;20481;-70
2022/03/12 06:09:50;;;;;;;19.80;12.45;;;;;;;7.78;66.89;101441.91;4984007;28;20019;-70
2022/03/12 06:12:18;;;;;;;16.95;11.98;;;;;;;7.79;67.02;101448.88;4978815;28;20089;-70
2022/03/12 06:14:44;;;;;;;17.70;12.10;;;;;;;7.80;67.39;101439.13;4983631;28;20494;-70
2022/03/12 06:17:12;;;;;;;17.93;12.13;;;;;;;7.80;67.45;101449.72;4978887;28;20027;-70
2022/03/12 06:19:37;;;;;;;20.57;12.50;;;;;;;7.78;67.07;101448.03;4987004;28;20049;-70
2022/03/12 06:22:03;;;;;;;18.58;12.18;;;;;;;7.76;67.53;101449.16;4978250;28;20486;-71
2022/03/12 06:24:28;;;;;;;19.87;12.27;;;;;;;7.75;67.61;101456.25;4991837;28;20026;-70
2022/03/12 06:26:53;;;;;;;18.17;12.67;;;;;;;7.72;67.69;101459.16;4977948;28;20434;-70
2022/03/12 06:29:19;;;;;;;19.00;12.57;;;;;;;7.77;67.54;101462.22;4981556;28;20154;-70
2022/03/12 06:31:44;;;;;;;18.87;12.33;;;;;;;7.70;68.13;101461.09;4981973;28;20019;-70
2022/03/12 06:34:12;;;;;;;19.40;12.90;;;;;;;7.67;68.15;101455.25;4984900;28;20022;-70
2022/03/12 06:36:39;;;;;;;20.50;12.77;;;;;;;7.75;68.14;101472.09;4977567;28;20489;-70
2022/03/12 06:39:06;;;;;;;17.90;12.50;;;;;;;7.70;68.28;101463.75;4977158;28;20080;-70
2022/03/12 06:41:38;;;;;;;19.47;13.17;;;;;;;7.71;68.61;101472.53;4978460;28;20552;-70
2022/03/12 06:44:06;;;;;;;19.20;12.73;;;;;;;7.72;68.27;101468.91;4977118;28;20022;-70
2022/03/12 06:46:33;;;;;;;21.07;13.20;;;;;;;7.64;68.42;101458.19;4975478;28;20113;-70
2022/03/12 06:48:58;;;;;;;16.35;12.35;;;;;;;7.74;68.90;101473.09;4975105;28;20482;-70
2022/03/12 06:51:24;;;;;;;18.27;12.70;;;;;;;7.75;68.80;101469.47;4974583;28;20033;-70
2022/03/12 06:53:51;;;;;;;20.20;12.37;;;;;;;7.76;69.01;101473.78;4976760;28;20034;-70
2022/03/12 06:56:16;;;;;;;17.87;12.67;;;;;;;7.78;69.58;101489.50;4982443;28;20471;-70
2022/03/12 06:58:41;;;;;;;21.93;12.03;;;;;;;7.78;69.58;101494.78;4983844;28;20026;-70
2022/03/12 07:01:07;;;;;;;18.30;12.50;;;;;;;7.80;69.61;101498.13;4980431;28;20069;-71
2022/03/12 07:03:32;;;;;;;18.10;12.30;;;;;;;7.76;69.83;101494.09;4976755;28;20037;-70
2022/03/12 07:05:57;;;;;;;19.97;12.67;;;;;;;7.85;70.05;101503.88;4977995;28;20027;-70
2022/03/12 07:08:23;;;;;;;18.13;12.23;;;;;;;7.86;70.00;101488.84;4981295;28;20297;-70
2022/03/12 07:10:49;;;;;;;18.90;12.30;;;;;;;7.88;70.29;101498.31;4977794;28;20015;-70
2022/03/12 07:13:15;;;;;;;20.40;11.90;;;;;;;7.95;70.45;101509.16;4983498;28;20033;-70
2022/03/12 07:15:40;;;;;;;17.90;11.25;;;;;;;7.98;70.20;101507.09;4985407;28;20109;-70
2022/03/12 07:18:06;;;;;;;16.75;11.93;;;;;;;7.99;70.91;101499.97;4978708;28;20557;-70
2022/03/12 07:20:31;;;;;;;16.77;11.48;;;;;;;8.05;70.99;101505.56;4986814;28;20034;-70
2022/03/12 07:22:57;;;;;;;16.30;11.37;;;;;;;8.11;71.03;101511.28;4983134;28;20045;-70
2022/03/12 07:25:25;;;;;;;18.17;12.00;;;;;;;8.09;70.98;101506.09;4959892;28;20114;-70
2022/03/12 07:27:52;;;;;;;19.23;11.87;;;;;;;8.12;71.63;101500.56;4982021;28;20029;-70
2022/03/12 07:30:17;;;;;;;16.92;11.25;;;;;;;8.12;71.40;101505.84;4965700;28;20026;-70
2022/03/12 07:32:44;;;;;;;19.65;11.68;;;;;;;8.22;71.70;101516.44;4979364;28;20030;-70
2022/03/12 07:35:13;;;;;;;18.23;11.57;;;;;;;8.22;71.56;101514.63;4984558;28;20101;-70
2022/03/12 07:37:39;;;;;;;19.77;11.93;;;;;;;8.26;71.84;101533.69;4983233;28;20030;-70
2022/03/12 07:40:06;;;;;;;16.92;11.85;;;;;;;8.32;71.89;101535.78;4970787;28;20030;-70
2022/03/12 07:42:32;;;;;;;16.43;11.17;;;;;;;8.37;72.00;101537.06;4975653;28;20548;-70
2022/03/12 07:44:57;;;;;;;16.05;10.98;;;;;;;8.48;71.99;101537.94;4980652;28;20065;-70
2022/03/12 07:47:22;;;;;;;17.73;11.13;;;;;;;8.57;71.98;101539.72;4959664;28;20031;-70
2022/03/12 07:49:48;;;;;;;15.57;10.43;;;;;;;8.64;71.95;101541.66;4979841;28;20030;-70
2022/03/12 07:52:13;;;;;;;17.48;10.95;;;;;;;8.72;72.11;101542.78;4985019;28;20539;-70
2022/03/12 07:54:38;;;;;;;17.10;10.68;;;;;;;8.81;72.25;101545.41;4968445;28;20057;-70
2022/03/12 07:57:04;;;;;;;16.48;10.60;;;;;;;8.90;71.92;101551.66;4983711;28;20027;-70
2022/03/12 07:59:30;;;;;;;16.20;11.27;;;;;;;8.97;72.08;101542.19;4979334;28;20109;-70
2022/03/12 08:01:55;;;;;;;16.40;10.57;;;;;;;9.09;71.99;101542.84;4970840;28;20082;-70
2022/03/12 08:04:21;;;;;;;15.05;10.07;;;;;;;9.11;71.63;101533.78;4973267;28;20371;-70
2022/03/12 08:06:47;;;;;;;15.68;10.68;;;;;;;9.26;71.91;101555.38;4976485;28;20034;-70
2022/03/12 08:09:12;;;;;;;16.15;9.90;;;;;;;9.34;71.63;101559.94;4987356;28;20026;-70
2022/03/12 08:11:38;;;;;;;16.00;10.20;;;;;;;9.35;71.64;101554.50;4980640;28;20030;-70
2022/03/12 08:14:09;;;;;;;15.00;9.60;;;;;;;9.39;71.79;101568.28;4978188;28;20069;-70
2022/03/12 08:16:35;;;;;;;13.30;10.20;;;;;;;9.39;71.78;101553.22;4973265;28;20057;-70
2022/03/12 08:19:06;;;;;;;15.90;9.80;;;;;;;9.46;71.51;101564.91;4975041;28;20041;-70
2022/03/12 08:21:32;;;;;;;15.27;9.85;;;;;;;9.57;71.74;101572.69;4974591;28;20065;-70
2022/03/12 08:23:58;;;;;;;13.13;9.85;;;;;;;9.67;71.46;101567.34;4977728;28;20038;-70
2022/03/12 08:26:24;;;;;;;15.55;10.40;;;;;;;9.74;71.47;101563.09;4984675;28;20348;-70
2022/03/12 08:28:50;;;;;;;12.05;8.77;;;;;;;9.77;71.25;101570.75;4983995;28;20030;-70
2022/03/12 08:31:15;;;;;;;14.70;9.32;;;;;;;9.84;71.37;101571.03;4953606;28;20486;-70
2022/03/12 08:33:41;;;;;;;13.43;8.90;;;;;;;9.93;71.28;101578.94;4974316;28;20036;-70
2022/03/12 08:36:07;;;;;;;12.25;8.57;;;;;;;10.00;71.06;101578.34;4978262;28;20038;-70
2022/03/12 08:38:35;;;;;;;12.88;8.98;;;;;;;10.11;70.60;101591.38;4975812;28;20434;-70
2022/03/12 08:41:02;;;;;;;14.77;8.95;;;;;;;10.19;70.65;101586.19;4978225;28;20118;-70
2022/03/12 08:43:27;;;;;;;14.77;8.93;;;;;;;10.23;70.44;101585.75;4982017;28;20386;-70
2022/03/12 08:45:53;;;;;;;13.15;8.10;;;;;;;10.35;70.15;101591.69;4980054;28;20024;-70
2022/03/12 08:48:19;;;;;;;12.50;8.40;;;;;;;10.35;70.12;101575.75;4981790;28;20033;-70
2022/03/12 08:50:45;;;;;;;11.88;8.00;;;;;;;10.54;69.70;101596.03;4981168;28;20027;-70
2022/03/12 08:53:11;;;;;;;10.93;7.57;;;;;;;10.52;69.55;101585.56;4984927;28;20509;-70
2022/03/12 08:55:36;;;;;;;12.25;7.80;;;;;;;10.59;69.91;101595.56;4980695;28;20482;-70
2022/03/12 08:58:02;;;;;;;11.65;7.93;;;;;;;10.59;69.73;101591.09;4979792;28;20035;-70
2022/03/12 09:00:27;;;;;;;12.85;7.82;;;;;;;10.71;69.79;101603.16;4982710;28;20494;-70
2022/03/12 09:02:53;;;;;;;10.63;7.38;;;;;;;10.76;69.65;101608.84;4977857;28;20038;-70
2022/03/12 09:05:19;;;;;;;11.82;7.43;;;;;;;10.76;69.38;101600.88;4981029;28;20022;-69
2022/03/12 09:07:45;;;;;;;11.80;7.32;;;;;;;10.75;69.18;101599.22;4980296;28;20486;-70
2022/03/12 09:10:13;;;;;;;12.38;7.47;;;;;;;10.66;69.25;101601.91;4990545;28;20362;-70
2022/03/12 09:12:41;;;;;;;12.02;7.63;;;;;;;10.60;68.92;101602.53;4979414;28;20030;-70
2022/03/12 09:15:08;;;;;;;11.07;7.47;;;;;;;10.59;69.58;101607.03;4986690;28;20030;-70
2022/03/12 09:17:34;;;;;;;11.57;7.85;;;;;;;10.66;69.48;101616.03;4982920;28;20498;-70
2022/03/12 09:19:59;;;;;;;15.13;8.50;;;;;;;10.76;69.66;101611.50;4979742;28;20031;-69
2022/03/12 09:22:25;;;;;;;13.32;7.38;;;;;;;10.81;68.96;101614.53;4982791;28;20038;-70
2022/03/12 09:24:50;;;;;;;13.98;7.50;;;;;;;10.83;68.87;101598.44;4985106;28;20094;-70
2022/03/12 09:27:16;;;;;;;12.98;7.93;;;;;;;10.91;68.92;101611.78;4965795;28;20023;-70
2022/03/12 09:29:41;;;;;;;13.30;7.53;;;;;;;10.95;68.96;101607.81;4986377;28;20100;-70
2022/03/12 09:32:08;;;;;;;14.07;6.85;;;;;;;10.96;68.80;101620.13;4983047;28;20027;-70
2022/03/12 09:34:34;;;;;;;11.13;6.82;;;;;;;10.93;68.53;101608.97;4962787;28;20026;-70
2022/03/12 09:37:01;;;;;;;12.07;6.53;;;;;;;11.01;68.21;101617.03;4987414;28;20044;-70
2022/03/12 09:39:26;;;;;;;12.60;6.07;;;;;;;11.08;67.83;101610.09;4985927;28;20026;-70
2022/03/12 09:41:52;;;;;;;13.88;6.05;;;;;;;11.15;67.54;101614.63;4987194;28;20030;-70
2022/03/12 09:44:18;;;;;;;11.85;5.57;;;;;;;11.24;66.52;101623.50;4962383;28;20022;-70
2022/03/12 09:46:43;;;;;;;7.72;4.35;;;;;;;11.29;66.28;101615.06;4983046;28;20239;-70
2022/03/12 09:49:11;;;;;;;10.80;5.70;;;;;;;11.37;66.01;101618.59;4990318;28;20026;-70
2022/03/12 09:51:36;;;;;;;10.85;5.32;;;;;;;11.44;65.98;101601.03;4971108;28;20029;-70
2022/03/12 09:54:01;;;;;;;8.70;4.38;;;;;;;11.55;64.92;101610.53;4985597;28;20037;-70
2022/03/12 09:56:27;;;;;;;10.75;5.45;;;;;;;11.62;64.96;101618.75;4988894;28;20034;-70
2022/03/12 09:58:52;;;;;;;8.10;4.90;;;;;;;11.65;64.57;101615.78;4988819;28;20117;-70
2022/03/12 10:01:18;;;;;;;10.57;4.20;;;;;;;11.64;63.39;101620.25;4988851;28;20037;-70
2022/03/12 10:03:43;;;;;;;6.70;3.17;;;;;;;11.56;62.79;101614.03;4986920;28;20030;-70
2022/03/12 10:06:10;;;;;;;9.27;3.25;;;;;;;11.46;62.93;101620.31;4989438;28;20025;-70
2022/03/12 10:08:35;;;;;;;7.63;2.88;;;;;;;11.38;62.07;101630.91;4988909;28;20526;-70
2022/03/12 10:11:01;;;;;;;9.55;3.60;;;;;;;11.31;62.31;101631.69;4971001;28;20031;-71
2022/03/12 10:13:26;;;;;;;10.13;3.20;;;;;;;11.26;62.33;101636.63;4977587;28;20104;-70
2022/03/12 10:15:51;;;;;;;10.82;3.45;;;;;;;11.28;62.69;101632.00;4972405;28;20019;-69
2022/03/12 10:18:17;;;;;;;8.60;3.78;;;;;;;11.46;62.64;101643.41;4983620;28;20474;-70
2022/03/12 10:20:43;;;;;;;10.15;4.60;;;;;;;11.47;62.12;101629.97;4976864;28;20030;-70
2022/03/12 10:23:09;;;;;;;9.15;4.05;;;;;;;11.56;62.22;101649.47;4983655;28;20022;-70
2022/03/12 10:25:35;;;;;;;9.32;3.67;;;;;;;11.56;62.20;101637.97;4957926;28;20032;-70
2022/03/12 10:28:01;;;;;;;6.70;3.20;;;;;;;11.48;61.80;101638.78;4974112;28;20017;-70
2022/03/12 10:30:26;;;;;;;9.05;3.60;;;;;;;11.44;61.68;101629.44;4967396;28;20124;-70
2022/03/12 10:32:51;;;;;;;11.77;3.70;;;;;;;11.43;62.05;101639.25;4980257;28;20417;-69
2022/03/12 10:35:21;;;;;;;11.57;3.42;;;;;;;11.43;61.70;101638.41;4966547;28;20353;-69
2022/03/12 10:37:47;;;;;;;;;;;;;;;11.49;61.71;101633.28;4980873;28;20474;-70
2022/03/12 10:40:16;;;;;;;8.60;3.40;;;;;;;11.55;61.26;101633.66;4983305;28;20360;-70
2022/03/12 10:42:45;;;;;;;6.75;3.17;;;;;;;11.57;61.15;101637.03;4980046;28;20410;-69
2022/03/12 10:45:15;;;;;;;5.97;3.15;;;;;;;11.61;61.29;101641.88;4968141;28;20122;-69
2022/03/12 10:47:44;;;;;;;7.40;3.13;;;;;;;11.75;61.12;101640.44;4983842;28;20034;-69
2022/03/12 10:50:15;;;;;;;9.98;3.40;;;;;;;11.78;60.61;101640.97;4982052;28;20069;-69
2022/03/12 10:52:49;;;;;;;9.73;3.45;;;;;;;11.77;60.35;101631.28;4979196;28;20030;-69
2022/03/12 10:55:22;;;;;;;7.10;2.88;;;;;;;11.87;60.47;101635.72;4988698;28;20069;-70
2022/03/12 10:57:58;;;;;;;6.22;3.05;;;;;;;11.95;60.37;101641.06;4972319;28;20450;-69
2022/03/12 11:00:26;;;;;;;10.93;3.60;;;;;;;12.04;60.26;101632.94;4979284;28;20034;-69
2022/03/12 11:02:57;;;;;;;7.82;4.00;;;;;;;12.12;59.73;101636.63;4987066;28;20121;-69
2022/03/12 11:05:28;;;;;;;11.77;3.50;;;;;;;12.13;59.71;101640.94;4968516;28;20581;-69
2022/03/12 11:08:06;;;;;;;10.35;3.60;;;;;;;12.18;59.43;101628.00;4985159;28;20062;-69
2022/03/12 11:10:33;;;;;;;7.78;3.70;;;;;;;12.41;59.75;101639.69;4989455;28;20060;-69
2022/03/12 11:12:59;;;;;;;9.60;3.90;;;;;;;12.49;59.08;101639.75;4983636;28;20437;-69
2022/03/12 11:15:24;;;;;;;10.40;3.30;;;;;;;12.55;58.76;101644.41;4976441;28;20054;-69
2022/03/12 11:17:51;;;;;;;9.80;3.28;;;;;;;12.58;57.95;101646.75;4982729;28;20081;-69